Rotterdam — PDGS — position and weather

sailwx.info

Track history (hours):
 
Tides and Currents Weather Stations Pressure Air Temp Water Temp Dewpoint Dewpoint Depression Visibility Wind Speed Wind Dir Waves Ship Positions

Rotterdam

Operator: Holland America Line

Last reported at 2020-Jul-12 05:00 UTC. Time now 2020-Jul-14 12:41 UTC.
Position N 01°10' E 103°47'.

Length 228 m; beam 29 m.

Type: Ship. MMSI: 24616700.

Date/timePositionNaut miles runAvg speedWind from/ knotsBaromVisibWave heightAir tempDewpointWater temp
2020-Jul-12 05:00N 01°10' E 103°47'20 5.5
2020-Jul-12 01:28N 01°20' E 104°04'0 0.0
2020-Jul-11 23:58N 01°20' E 104°04'0 0.0
2020-Jul-11 22:28N 01°20' E 104°04'0 0.1
2020-Jul-11 20:55N 01°20' E 104°04'0 0.0
2020-Jul-11 18:58N 01°20' E 104°04'0 0.0
2020-Jul-11 15:28N 01°20' E 104°04'0 0.0
2020-Jul-11 13:28N 01°20' E 104°04'0 0.0
2020-Jul-11 10:58N 01°20' E 104°04'0 0.0
2020-Jul-11 08:55N 01°20' E 104°04'0 0.0
2020-Jul-11 07:55N 01°20' E 104°04'8 1.8
2020-Jul-11 03:30N 01°17' E 104°11'610.4
2020-Jul-11 02:53N 01°18' E 104°18'26 1.1
2020-Jul-10 02:19N 01°39' E 104°33'  
2020-Jul-06 09:31N 14°25' E 120°34'816.4
2020-Jul-06 09:01N 14°29' E 120°41'816.1
2020-Jul-06 08:30N 14°33' E 120°49'1 2.6
2020-Jul-06 07:58N 14°33' E 120°50'0 0.0
2020-Jul-05 12:10N 14°33' E 120°50'0 0.0
2020-Jul-05 10:22N 14°33' E 120°50'0 0.0
2020-Jul-05 03:55N 14°33' E 120°50'0 0.0
2020-Jul-05 02:31N 14°33' E 120°50'0 0.1
2020-Jul-05 01:37N 14°33' E 120°50'  
Track history (hours):
 
Tides and Currents Weather Stations Pressure Air Temp Water Temp Dewpoint Dewpoint Depression Visibility Wind Speed Wind Dir Waves Ship Positions

Rotterdam

Operator: Holland America Line

Last reported at 2020-Jul-12 05:00 UTC. Time now 2020-Jul-14 12:41 UTC.
Position N 01°10' E 103°47'.

Length 228 m; beam 29 m.

Type: Ship. MMSI: 24616700.

Date/timePositionNaut miles runAvg speedWind from/ knotsBaromVisibWave heightAir tempDewpointWater temp
2020-Jul-12 05:00N 01°10' E 103°47'20 5.5
2020-Jul-12 01:28N 01°20' E 104°04'0 0.0
2020-Jul-11 23:58N 01°20' E 104°04'0 0.0
2020-Jul-11 22:28N 01°20' E 104°04'0 0.1
2020-Jul-11 20:55N 01°20' E 104°04'0 0.0
2020-Jul-11 18:58N 01°20' E 104°04'0 0.0
2020-Jul-11 15:28N 01°20' E 104°04'0 0.0
2020-Jul-11 13:28N 01°20' E 104°04'0 0.0
2020-Jul-11 10:58N 01°20' E 104°04'0 0.0
2020-Jul-11 08:55N 01°20' E 104°04'0 0.0
2020-Jul-11 07:55N 01°20' E 104°04'8 1.8
2020-Jul-11 03:30N 01°17' E 104°11'610.4
2020-Jul-11 02:53N 01°18' E 104°18'26 1.1
2020-Jul-10 02:19N 01°39' E 104°33'  
2020-Jul-06 09:31N 14°25' E 120°34'816.4
2020-Jul-06 09:01N 14°29' E 120°41'816.1
2020-Jul-06 08:30N 14°33' E 120°49'1 2.6
2020-Jul-06 07:58N 14°33' E 120°50'0 0.0
2020-Jul-05 12:10N 14°33' E 120°50'0 0.0
2020-Jul-05 10:22N 14°33' E 120°50'0 0.0
2020-Jul-05 03:55N 14°33' E 120°50'0 0.0
2020-Jul-05 02:31N 14°33' E 120°50'0 0.1
2020-Jul-05 01:37N 14°33' E 120°50'  

Dump ship's entire track history